sensor_id;sensor_type;location;lat;lon;timestamp;pressure;altitude;pressure_sealevel;temperature;humidity
78444;BME280;67739;52.986;8.894;2023-09-12T00:00:36;101330.63;;;21.92;68.52
78444;BME280;67739;52.986;8.894;2023-09-12T00:03:01;101318.97;;;21.90;68.64
78444;BME280;67739;52.986;8.894;2023-09-12T00:05:27;101304.44;;;21.89;68.86
78444;BME280;67739;52.986;8.894;2023-09-12T00:07:52;101289.19;;;21.86;68.89
78444;BME280;67739;52.986;8.894;2023-09-12T00:10:20;101262.84;;;21.85;68.76
78444;BME280;67739;52.986;8.894;2023-09-12T00:12:46;101253.94;;;21.83;69.03
78444;BME280;67739;52.986;8.894;2023-09-12T00:15:11;101244.00;;;21.82;68.89
78444;BME280;67739;52.986;8.894;2023-09-12T00:17:37;101242.41;;;21.80;69.28
78444;BME280;67739;52.986;8.894;2023-09-12T00:20:03;101237.94;;;21.79;69.29
78444;BME280;67739;52.986;8.894;2023-09-12T00:22:31;101225.31;;;21.78;69.22
78444;BME280;67739;52.986;8.894;2023-09-12T00:24:56;101210.06;;;21.75;69.29
78444;BME280;67739;52.986;8.894;2023-09-12T00:27:22;101203.88;;;21.73;69.25
78444;BME280;67739;52.986;8.894;2023-09-12T00:29:47;101206.72;;;21.72;69.68
78444;BME280;67739;52.986;8.894;2023-09-12T00:32:12;101210.47;;;21.71;69.62
78444;BME280;67739;52.986;8.894;2023-09-12T00:34:38;101204.25;;;21.69;69.59
78444;BME280;67739;52.986;8.894;2023-09-12T00:37:04;101199.78;;;21.68;69.85
78444;BME280;67739;52.986;8.894;2023-09-12T00:39:29;101189.88;;;21.67;69.78
78444;BME280;67739;52.986;8.894;2023-09-12T00:41:55;101196.31;;;21.66;69.80
78444;BME280;67739;52.986;8.894;2023-09-12T00:44:21;101199.34;;;21.63;69.86
78444;BME280;67739;52.986;8.894;2023-09-12T00:46:48;101220.47;;;21.61;70.21
78444;BME280;67739;52.986;8.894;2023-09-12T00:49:15;101235.13;;;21.60;69.85
78444;BME280;67739;52.986;8.894;2023-09-12T00:51:42;101254.34;;;21.58;70.06
78444;BME280;67739;52.986;8.894;2023-09-12T00:54:08;101248.16;;;21.56;70.22
78444;BME280;67739;52.986;8.894;2023-09-12T00:56:34;101265.53;;;21.55;70.03
78444;BME280;67739;52.986;8.894;2023-09-12T00:59:00;101291.09;;;21.54;69.98
78444;BME280;67739;52.986;8.894;2023-09-12T01:01:26;101299.44;;;21.52;69.95
78444;BME280;67739;52.986;8.894;2023-09-12T01:03:52;101318.66;;;21.51;70.24
78444;BME280;67739;52.986;8.894;2023-09-12T01:06:21;101346.97;;;21.50;70.21
78444;BME280;67739;52.986;8.894;2023-09-12T01:08:48;101347.13;;;21.48;70.43
78444;BME280;67739;52.986;8.894;2023-09-12T01:11:14;101330.00;;;21.46;70.36
78444;BME280;67739;52.986;8.894;2023-09-12T01:13:40;101325.53;;;21.45;70.07
78444;BME280;67739;52.986;8.894;2023-09-12T01:16:05;101337.44;;;21.44;70.41
78444;BME280;67739;52.986;8.894;2023-09-12T01:18:31;101334.84;;;21.43;70.63
78444;BME280;67739;52.986;8.894;2023-09-12T01:26:30;101327.16;;;21.37;70.59
78444;BME280;67739;52.986;8.894;2023-09-12T01:29:06;101317.25;;;21.36;70.55
78444;BME280;67739;52.986;8.894;2023-09-12T01:31:33;101322.00;;;21.34;70.65
78444;BME280;67739;52.986;8.894;2023-09-12T01:34:10;101315.66;;;21.33;70.96
78444;BME280;67739;52.986;8.894;2023-09-12T01:36:36;101312.19;;;21.31;70.35
78444;BME280;67739;52.986;8.894;2023-09-12T01:39:02;101323.13;;;21.31;70.77
78444;BME280;67739;52.986;8.894;2023-09-12T01:41:29;101331.44;;;21.30;70.87
78444;BME280;67739;52.986;8.894;2023-09-12T01:43:56;101336.16;;;21.28;70.92
78444;BME280;67739;52.986;8.894;2023-09-12T01:46:23;101337.13;;;21.27;70.79
78444;BME280;67739;52.986;8.894;2023-09-12T01:48:49;101337.13;;;21.27;71.05
78444;BME280;67739;52.986;8.894;2023-09-12T01:51:18;101350.91;;;21.25;70.94
78444;BME280;67739;52.986;8.894;2023-09-12T01:53:45;101360.09;;;21.24;70.93
78444;BME280;67739;52.986;8.894;2023-09-12T01:56:12;101343.72;;;21.24;71.10
78444;BME280;67739;52.986;8.894;2023-09-12T01:58:38;101322.88;;;21.23;71.08
78444;BME280;67739;52.986;8.894;2023-09-12T02:01:03;101312.97;;;21.22;71.37
78444;BME280;67739;52.986;8.894;2023-09-12T02:03:29;101302.03;;;21.22;71.24
78444;BME280;67739;52.986;8.894;2023-09-12T02:05:54;101293.16;;;21.20;71.27
78444;BME280;67739;52.986;8.894;2023-09-12T02:08:19;101281.38;;;21.20;71.19
78444;BME280;67739;52.986;8.894;2023-09-12T02:10:45;101270.44;;;21.20;71.23
78444;BME280;67739;52.986;8.894;2023-09-12T02:13:10;101262.34;;;21.18;71.48
78444;BME280;67739;52.986;8.894;2023-09-12T02:15:35;101256.16;;;21.16;71.23
78444;BME280;67739;52.986;8.894;2023-09-12T02:18:01;101282.44;;;21.17;71.19
78444;BME280;67739;52.986;8.894;2023-09-12T02:20:26;101292.63;;;21.15;71.53
78444;BME280;67739;52.986;8.894;2023-09-12T02:22:51;101300.94;;;21.13;71.50
78444;BME280;67739;52.986;8.894;2023-09-12T02:25:16;101301.81;;;21.14;71.12
78444;BME280;67739;52.986;8.894;2023-09-12T02:27:45;101319.16;;;21.13;71.40
78444;BME280;67739;52.986;8.894;2023-09-12T02:30:10;101335.66;;;21.11;71.47
78444;BME280;67739;52.986;8.894;2023-09-12T02:32:35;101334.78;;;21.11;71.45
78444;BME280;67739;52.986;8.894;2023-09-12T02:35:01;101316.69;;;21.10;71.27
78444;BME280;67739;52.986;8.894;2023-09-12T02:37:27;101321.28;;;21.09;71.39
78444;BME280;67739;52.986;8.894;2023-09-12T02:39:53;101309.63;;;21.07;71.46
78444;BME280;67739;52.986;8.894;2023-09-12T02:42:18;101326.84;;;21.08;71.56
78444;BME280;67739;52.986;8.894;2023-09-12T02:44:43;101326.97;;;21.06;71.46
78444;BME280;67739;52.986;8.894;2023-09-12T02:47:08;101360.75;;;21.05;71.35
78444;BME280;67739;52.986;8.894;2023-09-12T02:49:34;101369.06;;;21.04;71.44
78444;BME280;67739;52.986;8.894;2023-09-12T02:51:59;101368.19;;;21.03;71.47
78444;BME280;67739;52.986;8.894;2023-09-12T02:54:24;101375.63;;;21.01;71.30
78444;BME280;67739;52.986;8.894;2023-09-12T02:56:50;101379.22;;;21.02;71.58
78444;BME280;67739;52.986;8.894;2023-09-12T02:59:15;101378.47;;;21.00;71.58
78444;BME280;67739;52.986;8.894;2023-09-12T03:01:40;101373.03;;;21.00;71.74
78444;BME280;67739;52.986;8.894;2023-09-12T03:04:06;101359.63;;;20.97;71.81
78444;BME280;67739;52.986;8.894;2023-09-12T03:06:31;101345.13;;;20.96;71.68
78444;BME280;67739;52.986;8.894;2023-09-12T03:08:56;101326.16;;;20.95;71.57
78444;BME280;67739;52.986;8.894;2023-09-12T03:11:22;101302.59;;;20.94;71.55
78444;BME280;67739;52.986;8.894;2023-09-12T03:13:47;101315.38;;;20.93;71.58
78444;BME280;67739;52.986;8.894;2023-09-12T03:16:13;101320.97;;;20.92;71.74
78444;BME280;67739;52.986;8.894;2023-09-12T03:18:39;101347.38;;;20.91;71.56
78444;BME280;67739;52.986;8.894;2023-09-12T03:21:05;101347.50;;;20.90;71.95
78444;BME280;67739;52.986;8.894;2023-09-12T03:23:31;101338.59;;;20.88;71.69
78444;BME280;67739;52.986;8.894;2023-09-12T03:26:04;101329.53;;;20.87;71.63
78444;BME280;67739;52.986;8.894;2023-09-12T03:28:30;101315.16;;;20.85;71.90
78444;BME280;67739;52.986;8.894;2023-09-12T03:31:10;101297.91;;;20.85;71.87
78444;BME280;67739;52.986;8.894;2023-09-12T03:33:37;101290.72;;;20.83;71.85
78444;BME280;67739;52.986;8.894;2023-09-12T03:36:03;101286.28;;;20.82;72.20
78444;BME280;67739;52.986;8.894;2023-09-12T03:38:28;101278.22;;;20.81;72.05
78444;BME280;67739;52.986;8.894;2023-09-12T03:40:53;101276.47;;;20.80;71.75
78444;BME280;67739;52.986;8.894;2023-09-12T03:43:19;101264.69;;;20.79;72.16
78444;BME280;67739;52.986;8.894;2023-09-12T03:45:44;101255.81;;;20.77;71.98
78444;BME280;67739;52.986;8.894;2023-09-12T03:48:09;101249.50;;;20.77;72.28
78444;BME280;67739;52.986;8.894;2023-09-12T03:50:35;101239.56;;;20.76;72.34
78444;BME280;67739;52.986;8.894;2023-09-12T03:53:00;101233.25;;;20.75;72.21
78444;BME280;67739;52.986;8.894;2023-09-12T03:55:25;101222.47;;;20.74;72.24
78444;BME280;67739;52.986;8.894;2023-09-12T03:57:51;101207.09;;;20.73;72.60
78444;BME280;67739;52.986;8.894;2023-09-12T04:00:16;101198.06;;;20.72;72.37
78444;BME280;67739;52.986;8.894;2023-09-12T04:02:41;101187.28;;;20.71;72.48
78444;BME280;67739;52.986;8.894;2023-09-12T04:05:07;101187.41;;;20.69;72.40
78444;BME280;67739;52.986;8.894;2023-09-12T04:07:32;101172.91;;;20.69;72.45
78444;BME280;67739;52.986;8.894;2023-09-12T04:09:58;101162.13;;;20.67;72.57
78444;BME280;67739;52.986;8.894;2023-09-12T04:12:23;101165.84;;;20.66;72.64
78444;BME280;67739;52.986;8.894;2023-09-12T04:14:52;101209.59;;;20.65;72.46
78444;BME280;67739;52.986;8.894;2023-09-12T04:17:17;101242.31;;;20.65;72.83
78444;BME280;67739;52.986;8.894;2023-09-12T04:19:43;101256.94;;;20.64;72.59
78444;BME280;67739;52.986;8.894;2023-09-12T04:22:08;101268.00;;;20.62;72.56
78444;BME280;67739;52.986;8.894;2023-09-12T04:24:33;101253.50;;;20.62;72.38
78444;BME280;67739;52.986;8.894;2023-09-12T04:26:59;101250.88;;;20.60;72.89
78444;BME280;67739;52.986;8.894;2023-09-12T04:29:24;101253.63;;;20.60;72.54
78444;BME280;67739;52.986;8.894;2023-09-12T04:31:49;101260.06;;;20.59;72.56
78444;BME280;67739;52.986;8.894;2023-09-12T04:34:15;101257.44;;;20.58;72.71
78444;BME280;67739;52.986;8.894;2023-09-12T04:36:40;101265.63;;;20.58;72.57
78444;BME280;67739;52.986;8.894;2023-09-12T04:39:06;101252.13;;;20.56;72.49
78444;BME280;67739;52.986;8.894;2023-09-12T04:41:31;101247.66;;;20.55;72.32
78444;BME280;67739;52.986;8.894;2023-09-12T04:43:56;101254.97;;;20.55;72.70
78444;BME280;67739;52.986;8.894;2023-09-12T04:46:23;101255.09;;;20.53;72.78
78444;BME280;67739;52.986;8.894;2023-09-12T04:48:49;101270.59;;;20.53;72.72
78444;BME280;67739;52.986;8.894;2023-09-12T04:51:14;101268.84;;;20.52;72.94
78444;BME280;67739;52.986;8.894;2023-09-12T04:53:39;101275.28;;;20.51;72.58
78444;BME280;67739;52.986;8.894;2023-09-12T04:56:05;101282.59;;;20.50;72.86
78444;BME280;67739;52.986;8.894;2023-09-12T04:58:32;101294.50;;;20.49;72.79
78444;BME280;67739;52.986;8.894;2023-09-12T05:00:57;101295.50;;;20.48;72.72
78444;BME280;67739;52.986;8.894;2023-09-12T05:03:23;101300.97;;;20.48;72.99
78444;BME280;67739;52.986;8.894;2023-09-12T05:05:49;101287.47;;;20.46;72.99
78444;BME280;67739;52.986;8.894;2023-09-12T05:08:15;101308.41;;;20.46;72.91
78444;BME280;67739;52.986;8.894;2023-09-12T05:10:40;101304.81;;;20.45;72.77
78444;BME280;67739;52.986;8.894;2023-09-12T05:13:06;101306.66;;;20.45;73.07
78444;BME280;67739;52.986;8.894;2023-09-12T05:15:31;101312.22;;;20.43;73.28
78444;BME280;67739;52.986;8.894;2023-09-12T05:17:57;101301.34;;;20.43;73.05
78444;BME280;67739;52.986;8.894;2023-09-12T05:20:22;101291.41;;;20.42;73.18
78444;BME280;67739;52.986;8.894;2023-09-12T05:22:47;101290.56;;;20.42;73.15
78444;BME280;67739;52.986;8.894;2023-09-12T05:25:13;101286.09;;;20.41;73.31
78444;BME280;67739;52.986;8.894;2023-09-12T05:27:38;101289.69;;;20.41;73.12
78444;BME280;67739;52.986;8.894;2023-09-12T05:30:04;101289.81;;;20.40;73.35
78444;BME280;67739;52.986;8.894;2023-09-12T05:32:30;101287.94;;;20.40;73.42
78444;BME280;67739;52.986;8.894;2023-09-12T05:34:56;101285.34;;;20.39;73.11
78444;BME280;67739;52.986;8.894;2023-09-12T05:37:21;101287.19;;;20.38;73.34
78444;BME280;67739;52.986;8.894;2023-09-12T05:39:46;101294.50;;;20.38;73.07
78444;BME280;67739;52.986;8.894;2023-09-12T05:42:14;101296.50;;;20.36;73.31
78444;BME280;67739;52.986;8.894;2023-09-12T05:44:45;101299.22;;;20.36;73.01
78444;BME280;67739;52.986;8.894;2023-09-12T05:47:11;101305.63;;;20.35;73.29
78444;BME280;67739;52.986;8.894;2023-09-12T05:49:36;101305.78;;;20.33;73.03
78444;BME280;67739;52.986;8.894;2023-09-12T05:52:02;101308.63;;;20.32;73.31
78444;BME280;67739;52.986;8.894;2023-09-12T05:54:27;101310.47;;;20.31;73.47
78444;BME280;67739;52.986;8.894;2023-09-12T05:56:53;101315.06;;;20.31;73.08
78444;BME280;67739;52.986;8.894;2023-09-12T05:59:19;101320.63;;;20.29;73.32
78444;BME280;67739;52.986;8.894;2023-09-12T06:01:44;101316.16;;;20.28;73.37
78444;BME280;67739;52.986;8.894;2023-09-12T06:04:10;101322.59;;;20.27;73.11
78444;BME280;67739;52.986;8.894;2023-09-12T06:06:35;101319.00;;;20.27;73.18
78444;BME280;67739;52.986;8.894;2023-09-12T06:09:00;101320.97;;;20.25;73.29
78444;BME280;67739;52.986;8.894;2023-09-12T06:11:26;101320.97;;;20.25;73.25
78444;BME280;67739;52.986;8.894;2023-09-12T06:13:51;101321.97;;;20.24;73.37
78444;BME280;67739;52.986;8.894;2023-09-12T06:16:16;101325.69;;;20.23;73.27
78444;BME280;67739;52.986;8.894;2023-09-12T06:18:42;101319.38;;;20.22;73.50
78444;BME280;67739;52.986;8.894;2023-09-12T06:21:07;101314.91;;;20.21;73.33
78444;BME280;67739;52.986;8.894;2023-09-12T06:23:34;101307.59;;;20.22;73.54
78444;BME280;67739;52.986;8.894;2023-09-12T06:25:59;101309.47;;;20.21;73.90
78444;BME280;67739;52.986;8.894;2023-09-12T06:28:29;101315.78;;;20.22;73.67
78444;BME280;67739;52.986;8.894;2023-09-12T06:30:55;101309.47;;;20.21;73.86
78444;BME280;67739;52.986;8.894;2023-09-12T06:33:22;101308.59;;;20.21;73.90
78444;BME280;67739;52.986;8.894;2023-09-12T06:35:50;101297.84;;;20.19;74.00
78444;BME280;67739;52.986;8.894;2023-09-12T06:38:18;101297.84;;;20.19;73.99
78444;BME280;67739;52.986;8.894;2023-09-12T06:40:44;101288.81;;;20.19;74.17
78444;BME280;67739;52.986;8.894;2023-09-12T06:43:09;101296.97;;;20.19;73.92
78444;BME280;67739;52.986;8.894;2023-09-12T06:45:34;101293.38;;;20.18;74.44
78444;BME280;67739;52.986;8.894;2023-09-12T06:48:03;101296.22;;;20.17;74.35
78444;BME280;67739;52.986;8.894;2023-09-12T06:50:28;101300.81;;;20.16;74.31
78444;BME280;67739;52.986;8.894;2023-09-12T06:52:54;101309.84;;;20.17;74.05
78444;BME280;67739;52.986;8.894;2023-09-12T06:55:19;101311.72;;;20.16;74.45
78444;BME280;67739;52.986;8.894;2023-09-12T06:57:44;101316.28;;;20.16;74.51
78444;BME280;67739;52.986;8.894;2023-09-12T07:00:12;101314.44;;;20.16;74.26
78444;BME280;67739;52.986;8.894;2023-09-12T07:02:37;101302.53;;;20.17;74.76
78444;BME280;67739;52.986;8.894;2023-09-12T07:05:03;101292.50;;;20.18;74.66
78444;BME280;67739;52.986;8.894;2023-09-12T07:07:29;101297.69;;;20.21;75.00
78444;BME280;67739;52.986;8.894;2023-09-12T07:09:54;101309.34;;;20.23;75.38
78444;BME280;67739;52.986;8.894;2023-09-12T07:12:19;101313.69;;;20.25;75.69
78444;BME280;67739;52.986;8.894;2023-09-12T07:14:45;101303.66;;;20.26;75.97
78444;BME280;67739;52.986;8.894;2023-09-12T07:17:10;101313.56;;;20.27;76.01
78444;BME280;67739;52.986;8.894;2023-09-12T07:19:35;101311.59;;;20.29;75.94
78444;BME280;67739;52.986;8.894;2023-09-12T07:22:01;101308.75;;;20.30;76.50
78444;BME280;67739;52.986;8.894;2023-09-12T07:24:27;101307.63;;;20.33;76.67
78444;BME280;67739;52.986;8.894;2023-09-12T07:26:53;101310.13;;;20.36;76.64
78444;BME280;67739;52.986;8.894;2023-09-12T07:29:18;101311.72;;;20.38;77.17
78444;BME280;67739;52.986;8.894;2023-09-12T07:31:44;101323.38;;;20.40;76.48
78444;BME280;67739;52.986;8.894;2023-09-12T07:34:09;101324.25;;;20.41;76.64
78444;BME280;67739;52.986;8.894;2023-09-12T07:36:36;101327.59;;;20.44;76.81
78444;BME280;67739;52.986;8.894;2023-09-12T07:39:01;101329.22;;;20.47;76.83
78444;BME280;67739;52.986;8.894;2023-09-12T07:41:27;101333.41;;;20.51;76.73
78444;BME280;67739;52.986;8.894;2023-09-12T07:43:53;101328.56;;;20.55;76.45
78444;BME280;67739;52.986;8.894;2023-09-12T07:46:18;101337.38;;;20.58;76.89
78444;BME280;67739;52.986;8.894;2023-09-12T07:48:43;101348.03;;;20.61;76.82
78444;BME280;67739;52.986;8.894;2023-09-12T07:51:15;101344.91;;;20.66;76.94
78444;BME280;67739;52.986;8.894;2023-09-12T07:53:42;101339.97;;;20.71;77.20
78444;BME280;67739;52.986;8.894;2023-09-12T07:56:09;101342.44;;;20.74;77.35
78444;BME280;67739;52.986;8.894;2023-09-12T07:58:35;101332.16;;;20.77;77.11
78444;BME280;67739;52.986;8.894;2023-09-12T08:01:07;101336.47;;;20.80;77.38
78444;BME280;67739;52.986;8.894;2023-09-12T08:03:36;101340.69;;;20.84;77.56
78444;BME280;67739;52.986;8.894;2023-09-12T08:06:03;101341.31;;;20.88;77.50
78444;BME280;67739;52.986;8.894;2023-09-12T08:08:29;101344.66;;;20.91;77.61
78444;BME280;67739;52.986;8.894;2023-09-12T08:10:56;101346.25;;;20.94;77.41
78444;BME280;67739;52.986;8.894;2023-09-12T08:13:22;101348.72;;;20.97;77.24
78444;BME280;67739;52.986;8.894;2023-09-12T08:15:47;101353.94;;;21.00;77.15
78444;BME280;67739;52.986;8.894;2023-09-12T08:18:13;101357.28;;;21.03;77.00
78444;BME280;67739;52.986;8.894;2023-09-12T08:20:38;101360.59;;;21.07;76.91
78444;BME280;67739;52.986;8.894;2023-09-12T08:23:03;101351.16;;;21.11;76.85
78444;BME280;67739;52.986;8.894;2023-09-12T08:25:29;101350.91;;;21.14;76.45
78444;BME280;67739;52.986;8.894;2023-09-12T08:27:54;101356.13;;;21.17;76.37
78444;BME280;67739;52.986;8.894;2023-09-12T08:30:19;101369.41;;;21.22;76.00
78444;BME280;67739;52.986;8.894;2023-09-12T08:32:45;101360.97;;;21.25;75.71
78444;BME280;67739;52.986;8.894;2023-09-12T08:35:11;101365.16;;;21.29;75.88
78444;BME280;67739;52.986;8.894;2023-09-12T08:37:40;101358.47;;;21.33;75.59
78444;BME280;67739;52.986;8.894;2023-09-12T08:40:07;101360.03;;;21.35;75.36
78444;BME280;67739;52.986;8.894;2023-09-12T08:42:39;101375.19;;;21.39;75.46
78444;BME280;67739;52.986;8.894;2023-09-12T08:45:16;101379.38;;;21.43;75.45
78444;BME280;67739;52.986;8.894;2023-09-12T08:47:49;101403.72;;;21.46;74.73
78444;BME280;67739;52.986;8.894;2023-09-12T08:50:16;101409.91;;;21.48;74.77
78444;BME280;67739;52.986;8.894;2023-09-12T08:52:43;101410.63;;;21.50;74.57
78444;BME280;67739;52.986;8.894;2023-09-12T08:55:10;101403.91;;;21.55;74.43
78444;BME280;67739;52.986;8.894;2023-09-12T08:57:38;101391.00;;;21.57;74.50
78444;BME280;67739;52.986;8.894;2023-09-12T09:00:04;101379.09;;;21.58;74.33
78444;BME280;67739;52.986;8.894;2023-09-12T09:02:33;101387.16;;;21.59;74.29
78444;BME280;67739;52.986;8.894;2023-09-12T09:04:59;101386.91;;;21.62;74.08
78444;BME280;67739;52.986;8.894;2023-09-12T09:07:27;101395.78;;;21.64;74.20
78444;BME280;67739;52.986;8.894;2023-09-12T09:09:53;101402.13;;;21.65;74.23
78444;BME280;67739;52.986;8.894;2023-09-12T09:12:19;101402.00;;;21.66;74.11
78444;BME280;67739;52.986;8.894;2023-09-12T09:14:45;101404.59;;;21.68;73.94
78444;BME280;67739;52.986;8.894;2023-09-12T09:17:10;101401.88;;;21.68;73.87
78444;BME280;67739;52.986;8.894;2023-09-12T09:19:43;101420.00;;;21.69;73.92
78444;BME280;67739;52.986;8.894;2023-09-12T09:22:09;101418.25;;;21.68;73.68
78444;BME280;67739;52.986;8.894;2023-09-12T09:24:34;101419.88;;;21.70;73.47
78444;BME280;67739;52.986;8.894;2023-09-12T09:26:59;101432.66;;;21.70;73.57
78444;BME280;67739;52.986;8.894;2023-09-12T09:29:27;101426.31;;;21.69;73.82
78444;BME280;67739;52.986;8.894;2023-09-12T09:31:57;101425.34;;;21.70;73.76
78444;BME280;67739;52.986;8.894;2023-09-12T09:34:23;101435.38;;;21.70;73.58
78444;BME280;67739;52.986;8.894;2023-09-12T09:36:53;101427.31;;;21.68;73.63
78444;BME280;67739;52.986;8.894;2023-09-12T09:39:28;101428.31;;;21.67;73.50
78444;BME280;67739;52.986;8.894;2023-09-12T09:41:57;101444.69;;;21.67;73.54
78444;BME280;67739;52.986;8.894;2023-09-12T09:44:25;101445.69;;;21.66;73.57
78444;BME280;67739;52.986;8.894;2023-09-12T09:46:54;101445.69;;;21.66;73.19
78444;BME280;67739;52.986;8.894;2023-09-12T09:49:20;101461.22;;;21.66;73.40
78444;BME280;67739;52.986;8.894;2023-09-12T09:51:47;101463.94;;;21.66;73.18
78444;BME280;67739;52.986;8.894;2023-09-12T09:54:13;101465.81;;;21.65;73.33
78444;BME280;67739;52.986;8.894;2023-09-12T09:56:54;101462.19;;;21.65;73.15
78444;BME280;67739;52.986;8.894;2023-09-12T09:59:24;101458.75;;;21.63;72.87
78444;BME280;67739;52.986;8.894;2023-09-12T10:01:52;101451.56;;;21.62;73.00
78444;BME280;67739;52.986;8.894;2023-09-12T10:04:20;101454.41;;;21.60;73.23
78444;BME280;67739;52.986;8.894;2023-09-12T10:06:46;101454.41;;;21.60;72.95
78444;BME280;67739;52.986;8.894;2023-09-12T10:09:13;101451.81;;;21.59;72.78
78444;BME280;67739;52.986;8.894;2023-09-12T10:11:40;101443.75;;;21.57;73.22
78444;BME280;67739;52.986;8.894;2023-09-12T10:14:06;101449.34;;;21.56;72.87
78444;BME280;67739;52.986;8.894;2023-09-12T10:16:38;101450.31;;;21.55;72.80
78444;BME280;67739;52.986;8.894;2023-09-12T10:19:25;101442.13;;;21.55;72.82
78444;BME280;67739;52.986;8.894;2023-09-12T10:22:09;101440.41;;;21.53;72.94
78444;BME280;67739;52.986;8.894;2023-09-12T10:24:37;101440.41;;;21.53;72.75
78444;BME280;67739;52.986;8.894;2023-09-12T10:27:05;101440.66;;;21.50;72.68
78444;BME280;67739;52.986;8.894;2023-09-12T10:29:31;101437.91;;;21.50;72.71
78444;BME280;67739;52.986;8.894;2023-09-12T10:31:57;101429.03;;;21.48;72.73
78444;BME280;67739;52.986;8.894;2023-09-12T10:34:25;101420.84;;;21.48;72.59
78444;BME280;67739;52.986;8.894;2023-09-12T10:36:52;101412.75;;;21.47;72.55
78444;BME280;67739;52.986;8.894;2023-09-12T10:39:20;101410.03;;;21.47;72.55
78444;BME280;67739;52.986;8.894;2023-09-12T10:41:47;101403.72;;;21.46;72.51
78444;BME280;67739;52.986;8.894;2023-09-12T10:44:17;101400.97;;;21.46;72.50
78444;BME280;67739;52.986;8.894;2023-09-12T10:46:45;101403.84;;;21.45;72.39
78444;BME280;67739;52.986;8.894;2023-09-12T10:49:12;101396.50;;;21.45;72.42
78444;BME280;67739;52.986;8.894;2023-09-12T10:51:41;101395.78;;;21.43;72.45
78444;BME280;67739;52.986;8.894;2023-09-12T10:54:08;101381.25;;;21.43;72.28
78444;BME280;67739;52.986;8.894;2023-09-12T10:56:34;101385.72;;;21.44;72.59
78444;BME280;67739;52.986;8.894;2023-09-12T11:01:50;101380.38;;;21.42;72.45
78444;BME280;67739;52.986;8.894;2023-09-12T11:06:44;101376.91;;;21.40;72.53
78444;BME280;67739;52.986;8.894;2023-09-12T11:09:26;101376.91;;;21.40;72.37
78444;BME280;67739;52.986;8.894;2023-09-12T11:14:21;101376.03;;;21.40;72.27
78444;BME280;67739;52.986;8.894;2023-09-12T11:19:46;101375.19;;;21.39;72.37
78444;BME280;67739;52.986;8.894;2023-09-12T11:22:30;101376.03;;;21.40;72.50
78444;BME280;67739;52.986;8.894;2023-09-12T11:24:57;101387.81;;;21.40;72.61
78444;BME280;67739;52.986;8.894;2023-09-12T11:27:43;101381.50;;;21.40;72.37
78444;BME280;67739;52.986;8.894;2023-09-12T11:30:10;101393.41;;;21.39;72.57
78444;BME280;67739;52.986;8.894;2023-09-12T11:32:36;101420.59;;;21.40;72.63
78444;BME280;67739;52.986;8.894;2023-09-12T11:35:06;101431.50;;;21.40;73.06
78444;BME280;67739;52.986;8.894;2023-09-12T11:37:32;101430.50;;;21.41;72.93
78444;BME280;67739;52.986;8.894;2023-09-12T11:39:58;101432.25;;;21.42;73.23
78444;BME280;67739;52.986;8.894;2023-09-12T11:42:24;101431.25;;;21.43;73.06
78444;BME280;67739;52.986;8.894;2023-09-12T11:44:53;101424.81;;;21.44;73.50
78444;BME280;67739;52.986;8.894;2023-09-12T11:47:18;101428.28;;;21.46;73.55
78444;BME280;67739;52.986;8.894;2023-09-12T11:49:45;101417.22;;;21.48;74.01
78444;BME280;67739;52.986;8.894;2023-09-12T11:52:14;101416.94;;;21.51;74.22
78444;BME280;67739;52.986;8.894;2023-09-12T11:54:44;101415.81;;;21.53;74.56
78444;BME280;67739;52.986;8.894;2023-09-12T11:57:12;101402.78;;;21.57;74.36
78444;BME280;67739;52.986;8.894;2023-09-12T11:59:39;101398.06;;;21.59;74.73
78444;BME280;67739;52.986;8.894;2023-09-12T12:02:08;101404.00;;;21.64;75.02
78444;BME280;67739;52.986;8.894;2023-09-12T12:04:34;101396.41;;;21.68;75.03
78444;BME280;67739;52.986;8.894;2023-09-12T12:07:00;101407.09;;;21.71;74.90
78444;BME280;67739;52.986;8.894;2023-09-12T12:09:26;101409.44;;;21.75;75.03
78444;BME280;67739;52.986;8.894;2023-09-12T12:11:52;101406.28;;;21.80;75.29
78444;BME280;67739;52.986;8.894;2023-09-12T12:14:17;101401.44;;;21.83;75.19
78444;BME280;67739;52.986;8.894;2023-09-12T12:16:46;101399.19;;;21.88;75.31
78444;BME280;67739;52.986;8.894;2023-09-12T12:19:13;101375.91;;;21.94;75.49
78444;BME280;67739;52.986;8.894;2023-09-12T12:21:39;101384.50;;;22.01;75.29
78444;BME280;67739;52.986;8.894;2023-09-12T12:24:07;101381.25;;;22.07;75.31
78444;BME280;67739;52.986;8.894;2023-09-12T12:26:33;101383.41;;;22.13;75.30
78444;BME280;67739;52.986;8.894;2023-09-12T12:29:04;101392.84;;;22.20;75.27
78444;BME280;67739;52.986;8.894;2023-09-12T12:31:30;101390.41;;;22.27;75.09
78444;BME280;67739;52.986;8.894;2023-09-12T12:33:56;101390.63;;;22.35;75.11
78444;BME280;67739;52.986;8.894;2023-09-12T12:36:22;101390.78;;;22.43;74.55
78444;BME280;67739;52.986;8.894;2023-09-12T12:38:49;101379.19;;;22.50;74.57
78444;BME280;67739;52.986;8.894;2023-09-12T12:41:26;101383.84;;;22.60;74.10
78444;BME280;67739;52.986;8.894;2023-09-12T12:43:53;101382.13;;;22.68;74.01
78444;BME280;67739;52.986;8.894;2023-09-12T12:46:24;101382.09;;;22.79;73.53
78444;BME280;67739;52.986;8.894;2023-09-12T12:48:50;101382.25;;;22.87;73.19
78444;BME280;67739;52.986;8.894;2023-09-12T12:53:44;101375.97;;;23.06;72.82
78444;BME280;67739;52.986;8.894;2023-09-12T12:56:14;101378.84;;;23.14;72.85
78444;BME280;67739;52.986;8.894;2023-09-12T12:58:45;101370.81;;;23.22;72.57
78444;BME280;67739;52.986;8.894;2023-09-12T13:01:11;101375.44;;;23.32;72.37
78444;BME280;67739;52.986;8.894;2023-09-12T13:03:36;101376.44;;;23.40;71.99
78444;BME280;67739;52.986;8.894;2023-09-12T13:06:01;101382.97;;;23.49;72.43